Terminal Aerodrome Forecast
Issued by NWS Upton, NY

Home | Current Version | Previous Version | Text Only | Print | Product List | Glossary On
Versions: 1 2 3 4 5 6 7 8 9 10 11 12 13 14 15 16 17 18 19 20 21 22 23 24 25 26 27 28 29 30 31 32 33 34 35 36 37 38 39 40
000
FTUS41 KOKX 202140 AAB
TAFEWR
TAF AMD
KEWR 202140Z 2022/2124 36014G21KT P6SM SCT035 BKN070 BKN250
     FM210100 35010KT P6SM SCT100 BKN250
     FM211600 35013G20KT P6SM SCT050=

USA.gov is the U.S. government's official web portal to all federal, state and local government web resources and services.